Time;durP1;ratioP1;P1;durP2;ratioP2;P2;SDS_P1;SDS_P2;PMS_P1;PMS_P2;Temp;Humidity;BMP_temperature;BMP_pressure;BME280_temperature;BME280_humidity;BME280_pressure;Samples;Min_cycle;Max_cycle;Signal;HPM_P1;HPM_P2
2021/03/23 00:00:44;;;;;;;1.27;1.05;;;18.00;57.40;;;;;;5046216;28;20040;-37
2021/03/23 00:03:21;;;;;;;1.33;0.80;;;18.10;57.40;;;;;;5028147;28;20032;-38
2021/03/23 00:05:47;;;;;;;2.75;0.82;;;18.00;57.40;;;;;;5062771;28;20044;-38
2021/03/23 00:08:38;;;;;;;1.08;0.75;;;18.00;57.40;;;;;;5062744;28;20033;-38
2021/03/23 00:11:10;;;;;;;1.40;0.82;;;18.00;57.30;;;;;;5062579;28;20025;-38
2021/03/23 00:13:40;;;;;;;1.23;0.73;;;18.00;57.30;;;;;;5062255;28;20060;-37
2021/03/23 00:16:06;;;;;;;1.75;0.85;;;18.00;57.40;;;;;;5062429;28;20044;-38
2021/03/23 00:18:33;;;;;;;1.23;0.80;;;18.00;57.30;;;;;;5062657;28;20044;-38
2021/03/23 00:20:59;;;;;;;1.57;0.93;;;18.00;57.40;;;;;;5044750;28;20273;-37
2021/03/23 00:23:25;;;;;;;2.38;0.80;;;18.00;57.30;;;;;;5064205;28;20031;-38
2021/03/23 00:25:51;;;;;;;1.63;0.80;;;18.00;57.30;;;;;;5080515;28;20381;-41
2021/03/23 00:28:19;;;;;;;1.95;0.80;;;18.00;57.10;;;;;;5062208;28;20041;-38
2021/03/23 00:30:45;;;;;;;1.08;0.73;;;18.00;57.10;;;;;;5062104;28;20039;-37
2021/03/23 00:33:11;;;;;;;1.60;0.93;;;18.00;57.10;;;;;;5062105;28;20123;-38
2021/03/23 00:35:37;;;;;;;1.52;0.95;;;18.00;57.10;;;;;;5050920;28;20036;-37
2021/03/23 00:38:04;;;;;;;1.45;0.98;;;18.00;57.10;;;;;;5044253;28;20029;-37
2021/03/23 00:40:32;;;;;;;1.10;0.80;;;18.00;57.20;;;;;;5062446;28;20028;-41
2021/03/23 00:43:00;;;;;;;1.15;0.70;;;18.00;57.20;;;;;;5046678;28;20032;-38
2021/03/23 00:45:26;;;;;;;;;;;17.90;57.30;;;;;;5064623;28;20037;-38
2021/03/23 00:47:52;;;;;;;2.28;0.82;;;17.90;57.60;;;;;;5082087;28;19912;-37
2021/03/23 00:50:18;;;;;;;1.55;0.70;;;17.90;57.30;;;;;;5072194;28;20080;-37
2021/03/23 00:52:45;;;;;;;1.77;0.90;;;17.90;57.30;;;;;;5066319;28;20056;-38
2021/03/23 00:55:12;;;;;;;1.30;1.00;;;17.90;57.30;;;;;;5065633;28;20363;-38
2021/03/23 00:57:38;;;;;;;1.35;0.95;;;17.90;57.20;;;;;;5066040;28;20040;-37
2021/03/23 01:00:09;;;;;;;2.65;0.95;;;17.90;57.20;;;;;;5065977;28;20094;-38
2021/03/23 01:02:35;;;;;;;2.47;0.88;;;17.90;57.20;;;;;;5051721;28;20037;-38
2021/03/23 01:05:01;;;;;;;1.55;0.98;;;17.90;57.20;;;;;;5045639;28;20021;-37
2021/03/23 01:07:28;;;;;;;0.90;0.80;;;17.90;57.20;;;;;;5045788;28;20483;-38
2021/03/23 01:09:54;;;;;;;1.50;0.90;;;17.90;57.20;;;;;;5045441;28;20045;-37
2021/03/23 01:12:20;;;;;;;2.22;1.10;;;17.80;57.20;;;;;;5061749;28;20045;-38
2021/03/23 01:14:46;;;;;;;1.27;0.90;;;17.80;57.30;;;;;;5047689;28;20152;-38
2021/03/23 01:17:12;;;;;;;2.10;0.90;;;17.80;57.20;;;;;;5065536;28;20025;-38
2021/03/23 01:19:39;;;;;;;1.80;1.00;;;17.80;57.30;;;;;;5065543;28;20116;-38
2021/03/23 01:22:05;;;;;;;2.35;1.20;;;17.80;57.30;;;;;;5065657;28;20127;-38
2021/03/23 01:24:31;;;;;;;1.27;1.00;;;17.80;57.30;;;;;;5057611;28;20036;-38
2021/03/23 01:26:57;;;;;;;1.55;1.05;;;17.80;57.50;;;;;;5050389;28;20029;-38
2021/03/23 01:29:24;;;;;;;2.80;1.13;;;17.80;57.50;;;;;;5045247;28;20068;-38
2021/03/23 01:31:50;;;;;;;1.35;1.20;;;17.80;57.50;;;;;;5027774;28;20051;-39
2021/03/23 01:34:16;;;;;;;1.83;1.30;;;17.80;57.60;;;;;;5044969;28;20033;-38
2021/03/23 01:36:42;;;;;;;2.88;1.35;;;17.80;57.80;;;;;;5045302;28;20041;-38
2021/03/23 01:39:08;;;;;;;2.50;1.60;;;17.80;57.70;;;;;;5045139;28;20130;-38
2021/03/23 01:41:34;;;;;;;3.03;1.42;;;17.70;57.70;;;;;;5054014;28;20029;-38
2021/03/23 01:44:01;;;;;;;2.72;1.67;;;17.70;57.70;;;;;;5084928;28;20029;-38
2021/03/23 01:46:37;;;;;;;2.83;1.77;;;17.70;57.70;;;;;;5084901;28;20070;-38
2021/03/23 01:49:03;;;;;;;2.65;1.75;;;17.70;57.70;;;;;;5081841;28;20032;-37
2021/03/23 01:51:30;;;;;;;2.53;1.85;;;17.70;57.70;;;;;;5047284;28;20025;-38
2021/03/23 01:54:00;;;;;;;2.80;1.77;;;17.70;57.70;;;;;;5064725;28;20032;-37
2021/03/23 01:56:26;;;;;;;3.00;2.00;;;17.70;57.70;;;;;;5046878;28;20132;-38
2021/03/23 01:58:52;;;;;;;2.55;1.90;;;17.70;57.80;;;;;;5046574;28;20025;-38
2021/03/23 02:01:19;;;;;;;3.05;1.65;;;17.60;57.80;;;;;;5042848;28;20025;-37
2021/03/23 02:03:49;;;;;;;2.97;2.00;;;17.60;57.60;;;;;;5010671;28;20049;-37
2021/03/23 02:06:32;;;;;;;3.47;2.17;;;17.60;57.80;;;;;;5044540;28;20029;-38
2021/03/23 02:08:58;;;;;;;3.13;2.00;;;17.60;57.70;;;;;;5026580;28;20041;-38
2021/03/23 02:11:25;;;;;;;2.07;1.53;;;17.60;57.50;;;;;;5032799;28;20025;-39
2021/03/23 02:13:51;;;;;;;2.78;1.90;;;17.60;57.50;;;;;;5066231;28;20092;-38
2021/03/23 02:16:17;;;;;;;3.63;1.58;;;17.50;57.20;;;;;;5084299;28;20032;-38
2021/03/23 02:18:43;;;;;;;2.78;2.20;;;17.50;56.90;;;;;;5084500;28;20020;-38
2021/03/23 02:21:17;;;;;;;2.38;1.67;;;17.50;56.50;;;;;;5083052;28;20538;-38
2021/03/23 02:23:48;;;;;;;2.60;2.05;;;17.50;56.50;;;;;;5065068;28;20095;-38
2021/03/23 02:26:19;;;;;;;2.28;1.73;;;17.50;56.30;;;;;;5034145;28;20158;-38
2021/03/23 02:28:58;;;;;;;2.85;1.77;;;17.50;56.30;;;;;;5044118;28;20147;-38
2021/03/23 02:31:29;;;;;;;3.63;1.95;;;17.50;56.10;;;;;;5044354;28;20029;-38
2021/03/23 02:33:55;;;;;;;3.55;1.92;;;17.50;56.20;;;;;;5044090;28;20034;-38
2021/03/23 02:36:21;;;;;;;2.95;1.90;;;17.40;56.30;;;;;;5043887;28;20025;-38
2021/03/23 02:38:48;;;;;;;3.47;1.75;;;17.40;56.20;;;;;;5026201;28;20064;-38
2021/03/23 02:41:14;;;;;;;3.45;1.90;;;17.40;56.20;;;;;;5047087;28;20084;-38
2021/03/23 02:43:40;;;;;;;2.78;1.88;;;17.40;56.30;;;;;;5084147;28;20544;-38
2021/03/23 02:46:06;;;;;;;3.78;1.90;;;17.40;56.20;;;;;;5083648;28;20033;-38
2021/03/23 02:48:32;;;;;;;2.65;1.83;;;17.40;56.40;;;;;;5081894;28;20037;-38
2021/03/23 02:50:59;;;;;;;2.80;1.90;;;17.40;56.30;;;;;;5064540;28;20021;-38
2021/03/23 02:53:25;;;;;;;2.70;2.10;;;17.40;56.20;;;;;;5063564;28;20031;-38
2021/03/23 02:55:52;;;;;;;2.92;1.70;;;17.30;56.20;;;;;;5063240;28;20025;-38
2021/03/23 02:58:18;;;;;;;3.25;2.08;;;17.30;56.30;;;;;;5063516;28;20029;-38
2021/03/23 03:00:44;;;;;;;3.15;2.00;;;17.30;56.30;;;;;;5063290;28;20859;-38
2021/03/23 03:03:11;;;;;;;1.88;1.60;;;17.30;56.20;;;;;;5044291;28;20053;-38
2021/03/23 03:05:37;;;;;;;2.78;1.65;;;17.30;56.30;;;;;;5025847;28;20030;-38
2021/03/23 03:08:04;;;;;;;1.92;1.50;;;17.30;56.30;;;;;;5043394;28;20029;-38
2021/03/23 03:10:30;;;;;;;2.95;1.65;;;17.20;56.30;;;;;;5043056;28;20033;-38
2021/03/23 03:12:58;;;;;;;3.20;1.80;;;17.20;56.40;;;;;;5073945;28;20048;-38
2021/03/23 03:15:24;;;;;;;1.77;1.50;;;17.20;56.30;;;;;;5065305;28;20033;-38
2021/03/23 03:17:50;;;;;;;2.70;1.50;;;17.20;56.40;;;;;;5058181;28;20057;-41
2021/03/23 03:20:17;;;;;;;2.75;1.73;;;17.20;56.40;;;;;;5025075;28;20037;-38
2021/03/23 03:22:43;;;;;;;2.42;1.58;;;17.20;56.90;;;;;;5043260;28;20039;-38
2021/03/23 03:25:10;;;;;;;3.35;1.77;;;17.20;56.40;;;;;;5043116;28;20033;-38
2021/03/23 03:27:37;;;;;;;2.38;1.50;;;17.20;56.50;;;;;;5042988;28;20072;-38
2021/03/23 03:30:08;;;;;;;1.73;1.60;;;17.20;56.50;;;;;;5042651;28;20037;-38
2021/03/23 03:32:34;;;;;;;2.38;1.70;;;17.20;56.50;;;;;;5042962;28;20076;-38
2021/03/23 03:35:00;;;;;;;2.33;1.70;;;17.10;56.40;;;;;;5042880;28;20040;-38
2021/03/23 03:37:26;;;;;;;2.25;1.63;;;17.10;56.50;;;;;;5042892;28;20029;-38
2021/03/23 03:39:53;;;;;;;2.47;1.70;;;17.10;56.50;;;;;;5042207;28;20025;-38
2021/03/23 03:42:19;;;;;;;2.45;1.67;;;17.10;56.60;;;;;;5063998;28;20088;-38
2021/03/23 03:44:45;;;;;;;2.40;1.67;;;17.10;56.50;;;;;;5065101;28;20031;-38
2021/03/23 03:47:11;;;;;;;2.25;1.67;;;17.00;56.50;;;;;;5082955;28;20028;-38
2021/03/23 03:49:37;;;;;;;2.53;1.67;;;17.00;56.50;;;;;;5074852;28;20056;-38
2021/03/23 03:52:04;;;;;;;2.25;1.40;;;17.00;56.50;;;;;;5062483;28;20021;-38
2021/03/23 03:54:31;;;;;;;2.05;1.70;;;17.00;56.50;;;;;;5062702;28;20035;-38
2021/03/23 03:56:57;;;;;;;2.47;1.83;;;17.00;56.50;;;;;;5062478;28;20025;-38
2021/03/23 03:59:23;;;;;;;2.92;1.80;;;17.00;56.50;;;;;;5062585;28;20784;-38
2021/03/23 04:01:49;;;;;;;2.88;1.80;;;17.00;56.50;;;;;;5054504;28;20025;-38
2021/03/23 04:04:15;;;;;;;2.70;2.10;;;17.00;56.70;;;;;;5042331;28;20119;-38
2021/03/23 04:06:41;;;;;;;2.92;2.00;;;16.90;56.60;;;;;;5042573;28;20030;-38
2021/03/23 04:09:07;;;;;;;2.35;2.03;;;16.90;56.50;;;;;;5042579;28;20032;-38
2021/03/23 04:11:34;;;;;;;2.67;1.70;;;16.90;56.60;;;;;;5050321;28;20024;-38
2021/03/23 04:14:00;;;;;;;3.30;1.95;;;16.90;56.60;;;;;;5047918;28;20041;-38
2021/03/23 04:16:26;;;;;;;3.15;2.20;;;16.90;56.60;;;;;;5042388;28;20029;-38
2021/03/23 04:18:53;;;;;;;3.28;2.08;;;16.90;56.70;;;;;;5042327;28;20115;-38
2021/03/23 04:21:19;;;;;;;3.92;2.33;;;16.90;56.70;;;;;;5042210;28;20041;-39
2021/03/23 04:23:45;;;;;;;2.25;2.05;;;16.90;56.50;;;;;;5044993;28;20132;-38
2021/03/23 04:26:12;;;;;;;3.15;2.47;;;16.90;56.60;;;;;;5058473;28;20029;-38
2021/03/23 04:28:39;;;;;;;2.83;2.50;;;16.80;56.50;;;;;;5085253;28;20036;-38
2021/03/23 04:31:05;;;;;;;3.33;2.70;;;16.80;56.50;;;;;;5082301;28;20036;-38
2021/03/23 04:33:31;;;;;;;3.10;2.40;;;16.80;56.60;;;;;;5066421;28;20047;-38
2021/03/23 04:36:00;;;;;;;3.42;2.65;;;16.80;56.60;;;;;;5066080;28;20051;-38
2021/03/23 04:38:34;;;;;;;4.22;3.00;;;16.80;56.50;;;;;;5066243;28;20025;-38
2021/03/23 04:41:01;;;;;;;3.20;2.80;;;16.80;56.60;;;;;;5047804;28;20037;-38
2021/03/23 04:43:32;;;;;;;3.35;2.40;;;16.80;56.70;;;;;;5046966;28;20018;-38
2021/03/23 04:45:59;;;;;;;3.30;2.60;;;16.70;56.60;;;;;;5065975;28;20039;-38
2021/03/23 04:48:25;;;;;;;5.90;3.20;;;16.70;56.60;;;;;;5065828;28;20037;-38
2021/03/23 04:50:52;;;;;;;3.63;2.78;;;16.70;56.60;;;;;;5065637;28;20032;-38
2021/03/23 04:53:32;;;;;;;4.68;3.17;;;16.70;56.60;;;;;;5066499;28;20044;-38
2021/03/23 04:55:58;;;;;;;4.30;3.17;;;16.70;56.60;;;;;;5065547;28;20564;-38
2021/03/23 04:58:25;;;;;;;4.53;3.27;;;16.70;56.70;;;;;;5047941;28;20036;-38
2021/03/23 05:00:51;;;;;;;4.73;3.20;;;16.60;56.60;;;;;;5065736;28;20040;-38
2021/03/23 05:03:19;;;;;;;5.85;3.72;;;16.70;56.70;;;;;;5045375;28;20041;-38
2021/03/23 05:05:45;;;;;;;4.57;3.50;;;16.70;56.60;;;;;;5045732;28;20025;-38
2021/03/23 05:08:11;;;;;;;4.43;3.50;;;16.70;56.70;;;;;;5045769;28;20072;-38
2021/03/23 05:10:38;;;;;;;5.07;3.63;;;16.60;56.70;;;;;;5045638;28;20034;-38
2021/03/23 05:13:04;;;;;;;3.97;3.35;;;16.60;56.80;;;;;;5078474;28;20440;-38
2021/03/23 05:15:30;;;;;;;5.33;4.27;;;16.60;56.70;;;;;;5085513;28;20036;-38
2021/03/23 05:17:57;;;;;;;5.75;4.00;;;16.60;56.70;;;;;;5084847;28;20090;-38
2021/03/23 05:20:23;;;;;;;4.82;3.80;;;16.60;56.70;;;;;;5065785;28;20040;-38
2021/03/23 05:22:49;;;;;;;4.93;3.67;;;16.60;56.70;;;;;;5064508;28;20017;-38
2021/03/23 05:25:15;;;;;;;5.05;3.80;;;16.60;56.70;;;;;;5054339;28;20119;-38
2021/03/23 05:27:42;;;;;;;5.07;4.05;;;16.60;56.80;;;;;;5048214;28;20025;-38
2021/03/23 05:30:09;;;;;;;5.72;4.15;;;16.60;56.80;;;;;;5045111;28;20046;-38
2021/03/23 05:32:35;;;;;;;4.55;3.70;;;16.50;56.80;;;;;;5044877;28;20033;-38
2021/03/23 05:35:02;;;;;;;5.30;4.00;;;16.50;56.70;;;;;;5026604;28;20033;-38
2021/03/23 05:37:28;;;;;;;6.20;4.38;;;16.50;56.80;;;;;;5045306;28;20022;-38
2021/03/23 05:39:55;;;;;;;5.65;4.40;;;16.50;56.90;;;;;;5044942;28;20034;-38
2021/03/23 05:42:40;;;;;;;6.20;4.80;;;16.50;56.90;;;;;;5066431;28;20118;-38
2021/03/23 05:45:23;;;;;;;5.47;4.28;;;16.50;56.80;;;;;;5050313;28;20060;-38
2021/03/23 05:48:15;;;;;;;7.45;4.82;;;16.50;56.90;;;;;;5084869;28;20025;-38
2021/03/23 05:51:01;;;;;;;6.35;4.97;;;16.50;56.90;;;;;;5073718;28;20050;-38
2021/03/23 05:53:39;;;;;;;7.13;4.68;;;16.50;56.90;;;;;;5084657;28;20020;-37
2021/03/23 05:56:05;;;;;;;5.85;4.93;;;16.50;56.90;;;;;;5047899;28;20044;-38
2021/03/23 05:58:33;;;;;;;6.07;4.78;;;16.50;57.00;;;;;;5030448;28;20048;-37
2021/03/23 06:01:06;;;;;;;6.70;5.22;;;16.50;56.90;;;;;;5063659;28;20032;-38
2021/03/23 06:03:46;;;;;;;7.10;4.75;;;16.40;56.90;;;;;;5026605;28;20030;-38
2021/03/23 06:06:38;;;;;;;5.95;4.88;;;16.40;56.90;;;;;;5011286;28;20021;-38
2021/03/23 06:09:04;;;;;;;6.75;5.28;;;16.40;57.00;;;;;;5044324;28;20037;-38
2021/03/23 06:11:44;;;;;;;6.63;5.35;;;16.40;56.90;;;;;;5052043;28;20040;-38
2021/03/23 06:14:22;;;;;;;7.63;5.25;;;16.40;57.00;;;;;;5066780;28;20051;-38
2021/03/23 06:17:00;;;;;;;7.22;5.10;;;16.40;57.10;;;;;;5066446;28;20024;-38
2021/03/23 06:19:50;;;;;;;7.82;5.25;;;16.40;57.00;;;;;;5084405;28;20090;-38
2021/03/23 06:22:43;;;;;;;8.35;5.63;;;16.40;57.00;;;;;;5035257;28;20033;-38
2021/03/23 06:25:41;;;;;;;7.15;5.65;;;16.40;57.10;;;;;;5042743;28;20052;-38
2021/03/23 06:28:22;;;;;;;6.88;5.00;;;16.40;57.00;;;;;;5031249;28;20744;-38
2021/03/23 06:31:07;;;;;;;6.60;5.35;;;16.40;57.20;;;;;;5064058;28;20067;-38
2021/03/23 06:33:33;;;;;;;5.95;5.25;;;16.30;57.50;;;;;;5026051;28;20041;-38
2021/03/23 06:36:01;;;;;;;7.13;5.75;;;16.30;57.10;;;;;;5044115;28;20112;-38
2021/03/23 06:38:32;;;;;;;7.53;6.07;;;16.30;57.00;;;;;;5055903;28;20025;-38
2021/03/23 06:41:15;;;;;;;6.55;5.50;;;16.30;57.00;;;;;;5062193;28;20031;-38
2021/03/23 06:43:46;;;;;;;8.95;5.80;;;16.30;57.10;;;;;;5063766;28;20059;-38
2021/03/23 06:46:33;;;;;;;7.70;5.82;;;16.30;57.10;;;;;;5082785;28;20033;-38
2021/03/23 06:49:14;;;;;;;7.50;6.00;;;16.30;57.10;;;;;;5066435;28;20132;-43
2021/03/23 06:52:01;;;;;;;7.68;5.90;;;16.30;57.10;;;;;;5070308;28;20025;-38
2021/03/23 06:54:31;;;;;;;6.70;5.55;;;16.30;57.30;;;;;;5063318;28;20043;-38
2021/03/23 06:57:15;;;;;;;8.43;5.95;;;16.20;57.20;;;;;;5052463;28;20058;-38
2021/03/23 06:59:58;;;;;;;7.53;5.60;;;16.20;57.10;;;;;;5043198;28;20120;-37
2021/03/23 07:02:27;;;;;;;6.47;5.78;;;16.20;57.20;;;;;;5010152;28;20025;-38
2021/03/23 07:04:53;;;;;;;7.22;5.30;;;16.20;57.20;;;;;;5043024;28;20030;-38
2021/03/23 07:07:29;;;;;;;8.43;5.88;;;16.20;57.30;;;;;;5100355;27;20399;-37
2021/03/23 07:09:57;;;;;;;7.88;5.90;;;16.20;57.20;;;;;;5100276;28;20031;-38
2021/03/23 07:12:38;;;;;;;8.85;6.22;;;16.20;57.80;;;;;;5100040;28;20032;-37
2021/03/23 07:15:20;;;;;;;6.78;5.55;;;16.20;57.20;;;;;;5102118;28;20028;-37
2021/03/23 07:17:48;;;;;;;6.90;5.60;;;16.20;57.20;;;;;;5100180;28;20024;-37
2021/03/23 07:20:27;;;;;;;7.28;5.55;;;16.20;57.30;;;;;;5100110;28;20107;-38
2021/03/23 07:22:54;;;;;;;7.85;5.97;;;16.20;57.30;;;;;;5099753;28;20032;-38
2021/03/23 07:25:30;;;;;;;7.65;6.05;;;16.20;57.30;;;;;;5098699;28;20032;-38
2021/03/23 07:28:20;;;;;;;7.25;5.90;;;16.20;57.30;;;;;;5100274;28;20472;-38
2021/03/23 07:31:16;;;;;;;7.00;5.72;;;16.20;57.30;;;;;;5099831;28;20449;-38
2021/03/23 07:33:44;;;;;;;7.55;5.70;;;16.10;57.30;;;;;;5079399;28;20082;-38
2021/03/23 07:36:13;;;;;;;7.18;5.68;;;16.10;57.30;;;;;;5078345;28;20025;-38
2021/03/23 07:38:54;;;;;;;7.38;5.80;;;16.10;57.80;;;;;;5061782;28;20058;-37
2021/03/23 07:41:29;;;;;;;7.03;5.40;;;16.10;57.30;;;;;;5062088;28;20123;-38
2021/03/23 07:43:59;;;;;;;6.97;5.68;;;16.10;57.40;;;;;;5079240;28;20029;-37
2021/03/23 07:46:46;;;;;;;7.25;5.40;;;16.10;57.40;;;;;;5077971;28;20102;-37
2021/03/23 07:49:34;;;;;;;7.07;5.55;;;16.10;57.40;;;;;;5062222;28;20035;-37
2021/03/23 07:52:19;;;;;;;9.00;5.93;;;16.10;57.40;;;;;;5079162;28;20025;-37
2021/03/23 07:54:45;;;;;;;6.40;5.40;;;16.00;57.30;;;;;;5100045;28;20095;-38
2021/03/23 07:57:25;;;;;;;7.20;5.68;;;16.00;57.50;;;;;;5106496;28;20111;-38
2021/03/23 08:00:15;;;;;;;8.48;6.03;;;16.00;57.50;;;;;;5097961;28;20040;-38
2021/03/23 08:03:00;;;;;;;7.65;6.10;;;16.00;57.30;;;;;;5083995;28;20033;-37
2021/03/23 08:05:35;;;;;;;7.95;5.80;;;16.00;57.50;;;;;;5077078;28;20068;-38
2021/03/23 08:08:07;;;;;;;6.97;5.28;;;15.90;57.50;;;;;;5078671;28;20025;-38
2021/03/23 08:10:41;;;;;;;7.95;6.07;;;16.00;57.50;;;;;;5081955;28;20411;-37
2021/03/23 08:13:37;;;;;;;6.90;5.32;;;15.90;57.60;;;;;;5106636;28;20033;-37
2021/03/23 08:16:28;;;;;;;7.35;5.95;;;16.00;57.50;;;;;;5069332;28;20044;-37
2021/03/23 08:19:02;;;;;;;6.80;5.25;;;15.90;57.60;;;;;;5065023;28;20029;-38
2021/03/23 08:22:19;;;;;;;7.60;5.80;;;15.90;57.40;;;;;;5078459;28;20028;-37
2021/03/23 08:25:13;;;;;;;7.07;5.57;;;15.90;57.80;;;;;;5042217;28;20033;-37
2021/03/23 08:27:53;;;;;;;6.75;5.57;;;15.90;57.60;;;;;;5042576;28;20041;-37
2021/03/23 08:30:47;;;;;;;7.47;5.30;;;15.90;57.60;;;;;;5044119;28;20045;-37
2021/03/23 08:33:37;;;;;;;6.90;5.53;;;15.90;57.80;;;;;;5032670;28;20072;-37
2021/03/23 08:36:21;;;;;;;6.55;5.10;;;15.90;57.60;;;;;;5042072;28;20030;-37
2021/03/23 08:38:53;;;;;;;7.65;5.82;;;15.90;57.60;;;;;;5025803;28;20030;-37
2021/03/23 08:41:37;;;;;;;6.43;5.22;;;15.90;57.60;;;;;;5042360;28;20037;-37
2021/03/23 08:44:04;;;;;;;5.90;5.30;;;15.90;58.30;;;;;;5027656;28;20028;-37
2021/03/23 08:46:34;;;;;;;6.28;5.13;;;15.90;57.90;;;;;;5025377;28;20152;-37
2021/03/23 08:49:03;;;;;;;6.57;5.03;;;15.90;57.80;;;;;;5025475;28;20037;-38
2021/03/23 08:51:30;;;;;;;7.10;5.43;;;15.90;57.80;;;;;;5026016;28;20030;-37
2021/03/23 08:54:00;;;;;;;8.45;5.95;;;15.90;57.80;;;;;;5029166;28;20047;-37
2021/03/23 08:56:50;;;;;;;6.82;4.95;;;15.90;57.70;;;;;;5039542;28;20057;-38
2021/03/23 08:59:32;;;;;;;6.80;5.50;;;15.80;57.60;;;;;;5040611;28;20040;-36
2021/03/23 09:02:00;;;;;;;6.30;5.60;;;15.80;57.80;;;;;;5084530;28;20772;-37
2021/03/23 09:04:36;;;;;;;6.28;5.13;;;15.80;58.00;;;;;;5099941;28;20622;-38
2021/03/23 09:07:20;;;;;;;7.18;5.20;;;15.80;57.90;;;;;;5084449;28;20055;-37
2021/03/23 09:09:47;;;;;;;6.43;5.05;;;15.80;58.40;;;;;;5084530;28;20048;-37
2021/03/23 09:12:33;;;;;;;6.50;5.40;;;15.80;57.80;;;;;;5084299;28;20580;-37
2021/03/23 09:15:09;;;;;;;8.27;5.88;;;15.80;58.00;;;;;;5077225;28;20064;-38
2021/03/23 09:17:56;;;;;;;5.80;4.93;;;15.80;57.80;;;;;;5084723;28;20051;-37
2021/03/23 09:20:32;;;;;;;7.10;5.07;;;15.80;58.00;;;;;;5084235;28;20017;-37
2021/03/23 09:23:20;;;;;;;7.03;5.32;;;15.80;57.90;;;;;;5084156;28;20097;-38
2021/03/23 09:25:58;;;;;;;5.80;5.20;;;15.80;57.90;;;;;;5083667;28;20091;-37
2021/03/23 09:28:34;;;;;;;6.40;4.95;;;15.80;58.00;;;;;;5083688;28;20841;-38
2021/03/23 09:31:03;;;;;;;5.60;4.93;;;15.80;58.10;;;;;;5082229;28;20033;-36
2021/03/23 09:33:35;;;;;;;5.65;4.82;;;15.80;57.90;;;;;;5064285;28;20025;-37
2021/03/23 09:38:45;;;;;;;6.43;4.93;;;15.80;57.90;;;;;;5063989;28;20021;-37
2021/03/23 09:41:20;;;;;;;6.35;5.15;;;15.80;58.00;;;;;;5063687;28;20083;-37
2021/03/23 09:44:13;;;;;;;6.15;5.18;;;15.80;58.00;;;;;;5063753;28;20033;-42
2021/03/23 09:46:44;;;;;;;7.20;4.93;;;15.80;58.10;;;;;;5062968;28;20041;-37
2021/03/23 09:49:22;;;;;;;7.22;5.18;;;15.80;58.00;;;;;;5062454;28;20679;-38
2021/03/23 09:51:57;;;;;;;6.78;5.13;;;15.80;58.00;;;;;;5063540;28;20033;-37
2021/03/23 09:54:26;;;;;;;7.45;5.22;;;15.70;58.00;;;;;;5077372;28;20028;-37
2021/03/23 09:56:53;;;;;;;5.97;4.85;;;15.70;58.10;;;;;;5091628;28;20096;-37
2021/03/23 09:59:22;;;;;;;;;;;15.70;58.10;;;;;;5083945;28;20067;-36
2021/03/23 10:02:00;;;;;;;5.90;5.13;;;15.70;58.10;;;;;;5075783;28;19913;-37
2021/03/23 10:04:31;;;;;;;6.07;4.68;;;15.70;58.20;;;;;;5063427;28;20033;-37
2021/03/23 10:06:58;;;;;;;7.53;5.20;;;15.70;58.20;;;;;;5062798;28;20509;-37
2021/03/23 10:09:26;;;;;;;6.90;5.43;;;15.70;58.20;;;;;;5063394;28;20109;-37
2021/03/23 10:11:52;;;;;;;6.50;4.82;;;15.70;58.00;;;;;;5063325;28;20103;-37
2021/03/23 10:14:36;;;;;;;5.93;5.18;;;15.70;58.00;;;;;;5063177;28;20036;-37
2021/03/23 10:17:20;;;;;;;6.18;4.95;;;15.70;58.10;;;;;;5062708;28;20025;-36
2021/03/23 10:19:51;;;;;;;6.97;5.03;;;15.70;58.20;;;;;;5061884;28;20021;-37
2021/03/23 10:22:29;;;;;;;6.68;5.07;;;15.70;58.20;;;;;;5081515;28;20047;-36
2021/03/23 10:24:57;;;;;;;5.93;4.80;;;15.70;58.20;;;;;;5081789;28;20044;-37
2021/03/23 10:27:26;;;;;;;;;;;15.70;58.30;;;;;;5081859;28;20040;-37
2021/03/23 10:29:57;;;;;;;5.65;4.75;;;15.70;58.20;;;;;;5115437;28;19915;-37
2021/03/23 10:32:34;;;;;;;7.18;4.85;;;15.70;58.20;;;;;;5070177;28;20028;-36
2021/03/23 10:35:16;;;;;;;6.18;4.53;;;15.70;58.30;;;;;;5083895;28;20518;-37
2021/03/23 10:37:42;;;;;;;5.97;4.60;;;15.70;58.20;;;;;;5062618;28;20035;-37
2021/03/23 10:40:30;;;;;;;5.88;4.50;;;15.70;58.20;;;;;;5062606;28;20103;-37
2021/03/23 10:42:56;;;;;;;7.20;4.97;;;15.70;58.20;;;;;;5062707;28;20024;-37
2021/03/23 10:45:37;;;;;;;6.10;4.50;;;15.60;58.10;;;;;;5062616;28;20265;-37
2021/03/23 10:48:24;;;;;;;5.50;4.45;;;15.60;58.20;;;;;;5062638;28;20033;-37
2021/03/23 10:51:19;;;;;;;4.85;4.13;;;15.60;58.30;;;;;;5062776;28;20031;-37
2021/03/23 10:53:59;;;;;;;6.20;4.70;;;15.60;58.30;;;;;;5066984;28;20055;-37
2021/03/23 10:56:29;;;;;;;5.95;4.82;;;15.60;58.30;;;;;;5094413;28;20787;-37
2021/03/23 10:59:13;;;;;;;6.05;4.72;;;15.60;58.30;;;;;;5082666;28;20030;-37
2021/03/23 11:02:14;;;;;;;5.97;4.78;;;15.60;58.30;;;;;;5082645;28;20043;-37
2021/03/23 11:05:11;;;;;;;5.75;4.30;;;15.60;58.40;;;;;;5084998;28;20040;-37
2021/03/23 11:07:55;;;;;;;5.18;4.55;;;15.60;58.40;;;;;;5062216;28;20037;-37
2021/03/23 11:10:24;;;;;;;6.05;4.53;;;15.60;58.50;;;;;;5063424;28;20044;-37
2021/03/23 11:12:50;;;;;;;5.38;4.78;;;15.60;58.40;;;;;;5082384;28;20016;-37
2021/03/23 11:15:16;;;;;;;6.18;4.30;;;15.60;58.30;;;;;;5082496;28;20036;-37
2021/03/23 11:17:50;;;;;;;5.07;4.45;;;15.60;58.40;;;;;;5080718;28;20021;-37
2021/03/23 11:20:33;;;;;;;5.28;4.28;;;15.60;58.40;;;;;;5082478;28;20082;-37
2021/03/23 11:23:02;;;;;;;5.90;4.63;;;15.60;58.40;;;;;;5087745;28;20024;-37
2021/03/23 11:25:28;;;;;;;5.72;4.80;;;15.60;58.40;;;;;;5084582;28;20050;-37
2021/03/23 11:27:56;;;;;;;4.82;3.97;;;15.60;58.60;;;;;;5101047;28;20035;-37
2021/03/23 11:30:22;;;;;;;6.80;4.45;;;15.60;58.60;;;;;;5087294;28;20017;-36
2021/03/23 11:32:49;;;;;;;5.57;4.35;;;15.60;58.50;;;;;;5060910;28;20087;-37
2021/03/23 11:35:17;;;;;;;5.35;4.25;;;15.60;58.50;;;;;;5062106;28;20127;-37
2021/03/23 11:37:43;;;;;;;5.40;4.15;;;15.60;58.40;;;;;;5062002;28;20029;-37
2021/03/23 11:40:10;;;;;;;5.07;4.20;;;15.60;58.40;;;;;;5062109;28;20052;-37
2021/03/23 11:42:44;;;;;;;6.03;4.03;;;15.60;58.50;;;;;;5060749;28;20036;-37
2021/03/23 11:45:42;;;;;;;5.57;4.32;;;15.60;58.40;;;;;;5077532;28;20342;-37
2021/03/23 11:48:11;;;;;;;5.53;3.90;;;15.50;58.40;;;;;;5055623;28;20053;-37
2021/03/23 11:50:38;;;;;;;6.47;4.43;;;15.50;58.40;;;;;;5022693;28;20116;-37
2021/03/23 11:53:04;;;;;;;5.97;4.05;;;15.50;58.60;;;;;;5041204;28;20028;-37
2021/03/23 11:55:32;;;;;;;4.68;3.78;;;15.50;58.60;;;;;;5043094;28;20038;-36
2021/03/23 11:57:59;;;;;;;4.78;3.88;;;15.50;58.60;;;;;;5081780;28;20036;-37
2021/03/23 12:00:27;;;;;;;5.50;4.10;;;15.50;58.70;;;;;;5075541;28;20060;-37
2021/03/23 12:02:54;;;;;;;5.13;4.38;;;15.50;58.60;;;;;;5046505;28;20122;-38
2021/03/23 12:05:21;;;;;;;3.58;2.80;;;15.50;58.70;;;;;;5045734;28;20039;-37
2021/03/23 12:08:05;;;;;;;4.47;3.75;;;15.50;58.70;;;;;;5062969;28;20808;-37
2021/03/23 12:11:13;;;;;;;4.40;3.90;;;15.50;58.70;;;;;;5062625;28;20033;-37
2021/03/23 12:14:03;;;;;;;5.05;3.47;;;15.50;58.70;;;;;;5014021;28;20097;-37
2021/03/23 12:16:44;;;;;;;4.75;3.90;;;15.50;59.00;;;;;;5022754;28;20045;-36
2021/03/23 12:19:13;;;;;;;4.10;3.58;;;15.50;59.20;;;;;;5022988;28;20065;-37
2021/03/23 12:21:39;;;;;;;4.78;4.18;;;15.50;58.90;;;;;;5006797;28;20030;-37
2021/03/23 12:24:06;;;;;;;6.10;3.78;;;15.50;58.80;;;;;;5018404;28;20676;-37
2021/03/23 12:26:33;;;;;;;4.55;3.60;;;15.50;58.80;;;;;;5049963;28;20049;-37
2021/03/23 12:28:59;;;;;;;4.30;3.42;;;15.50;58.80;;;;;;5062484;28;20033;-37
2021/03/23 12:31:27;;;;;;;4.47;3.60;;;15.50;58.80;;;;;;5057639;28;20047;-37
2021/03/23 12:33:58;;;;;;;5.88;3.67;;;15.50;58.90;;;;;;5042503;28;20028;-37
2021/03/23 12:36:24;;;;;;;5.65;3.92;;;15.50;58.80;;;;;;5042051;28;20029;-37
2021/03/23 12:38:52;;;;;;;5.40;3.72;;;15.50;58.70;;;;;;5025882;28;20073;-36
2021/03/23 12:41:26;;;;;;;4.88;3.55;;;15.50;58.70;;;;;;5025831;28;20067;-37
2021/03/23 12:43:52;;;;;;;4.88;3.58;;;15.50;58.70;;;;;;5061885;28;20039;-38
2021/03/23 12:46:18;;;;;;;4.00;3.47;;;15.50;58.70;;;;;;5061821;28;20061;-38
2021/03/23 12:48:45;;;;;;;4.82;3.38;;;15.50;58.60;;;;;;5062865;28;20028;-37
2021/03/23 12:51:42;;;;;;;4.72;3.47;;;15.50;58.70;;;;;;5083454;28;20110;-39
2021/03/23 12:54:31;;;;;;;3.95;3.30;;;15.40;58.70;;;;;;5084168;28;20049;-37
2021/03/23 12:56:58;;;;;;;4.45;3.70;;;15.40;58.80;;;;;;5094737;28;20080;-37
2021/03/23 12:59:25;;;;;;;4.50;3.40;;;15.40;59.00;;;;;;5103568;28;20036;-38
2021/03/23 13:01:52;;;;;;;4.28;3.53;;;15.40;58.90;;;;;;5076231;28;20171;-43
2021/03/23 13:04:21;;;;;;;5.63;3.40;;;15.40;58.80;;;;;;5064477;28;20029;-37
2021/03/23 13:06:48;;;;;;;4.07;3.15;;;15.40;58.80;;;;;;5062659;28;20052;-37
2021/03/23 13:09:14;;;;;;;5.13;3.55;;;15.40;58.70;;;;;;5064796;28;20082;-37
2021/03/23 13:11:47;;;;;;;4.85;3.25;;;15.40;58.90;;;;;;5064961;28;20093;-37
2021/03/23 13:14:27;;;;;;;3.85;3.33;;;15.40;58.80;;;;;;5085209;28;20020;-37
2021/03/23 13:16:54;;;;;;;4.10;3.22;;;15.40;59.00;;;;;;5082600;28;20024;-37